createdAt,value
2018-01-23T00:00:32.026Z,6.40
2018-01-23T00:02:59.450Z,6.40
2018-01-23T00:05:27.627Z,6.40
2018-01-23T00:07:55.801Z,6.40
2018-01-23T00:10:23.973Z,6.40
2018-01-23T00:12:51.391Z,6.40
2018-01-23T00:15:18.867Z,6.40
2018-01-23T00:17:46.289Z,6.40
2018-01-23T00:20:14.457Z,6.40
2018-01-23T00:22:41.975Z,6.40
2018-01-23T00:25:09.389Z,6.40
2018-01-23T00:27:36.798Z,6.40
2018-01-23T00:30:04.238Z,6.40
2018-01-23T00:32:31.659Z,6.40
2018-01-23T00:34:59.070Z,6.40
2018-01-23T00:37:26.489Z,6.40
2018-01-23T00:39:53.957Z,6.40
2018-01-23T00:42:22.110Z,6.40
2018-01-23T00:44:50.322Z,6.40
2018-01-23T00:47:17.749Z,6.40
2018-01-23T00:49:45.262Z,6.40
2018-01-23T00:52:12.686Z,6.40
2018-01-23T00:54:40.189Z,6.40
2018-01-23T00:57:08.361Z,6.40
2018-01-23T00:59:36.590Z,6.40
2018-01-23T01:02:04.709Z,6.40
2018-01-23T01:04:32.122Z,6.40
2018-01-23T01:06:59.585Z,6.40
2018-01-23T01:09:27.005Z,6.50
2018-01-23T01:11:54.439Z,6.50
2018-01-23T01:14:21.829Z,6.50
2018-01-23T01:16:49.242Z,6.50
2018-01-23T01:19:17.439Z,6.50
2018-01-23T01:21:44.841Z,6.50
2018-01-23T01:24:12.278Z,6.40
2018-01-23T01:26:40.432Z,6.50
2018-01-23T01:29:07.853Z,6.50
2018-01-23T01:31:35.274Z,6.50
2018-01-23T01:34:03.456Z,6.50
2018-01-23T01:36:31.633Z,6.50
2018-01-23T01:38:59.053Z,6.50
2018-01-23T01:41:26.461Z,6.50
2018-01-23T01:43:54.098Z,6.40
2018-01-23T01:46:22.248Z,6.50
2018-01-23T01:48:53.138Z,6.50
2018-01-23T01:51:20.591Z,6.50
2018-01-23T01:53:48.051Z,6.40
2018-01-23T01:56:15.454Z,6.50
2018-01-23T01:58:42.869Z,6.40
2018-01-23T02:01:11.048Z,6.50
2018-01-23T02:03:38.459Z,6.50
2018-01-23T02:06:05.918Z,6.50
2018-01-23T02:08:34.090Z,6.50
2018-01-23T02:11:02.264Z,6.40
2018-01-23T02:13:30.456Z,6.50
2018-01-23T02:15:57.892Z,6.40
2018-01-23T02:18:25.292Z,6.50
2018-01-23T02:20:53.469Z,6.40
2018-01-23T02:23:21.681Z,6.50
2018-01-23T02:25:49.085Z,6.40
2018-01-23T02:28:16.510Z,6.50
2018-01-23T02:30:43.988Z,6.50
2018-01-23T02:33:11.402Z,6.50
2018-01-23T02:35:38.813Z,6.50
2018-01-23T02:38:06.254Z,6.50
2018-01-23T02:40:33.667Z,6.50
2018-01-23T02:43:01.077Z,6.50
2018-01-23T02:45:29.252Z,6.40
2018-01-23T02:47:56.658Z,6.40
2018-01-23T02:50:24.866Z,6.50
2018-01-23T02:52:52.269Z,6.40
2018-01-23T02:55:19.697Z,6.50
2018-01-23T02:57:47.119Z,6.50
2018-01-23T03:00:14.530Z,6.50
2018-01-23T03:02:41.945Z,6.40
2018-01-23T03:05:09.470Z,6.40
2018-01-23T03:07:36.878Z,6.50
2018-01-23T03:10:04.301Z,6.50
2018-01-23T03:12:31.712Z,6.50
2018-01-23T03:14:59.133Z,6.40
2018-01-23T03:17:26.618Z,6.40
2018-01-23T03:19:54.765Z,6.40
2018-01-23T03:22:22.945Z,6.40
2018-01-23T03:24:50.358Z,6.40
2018-01-23T03:27:17.755Z,6.50
2018-01-23T03:29:45.188Z,6.40
2018-01-23T03:32:12.589Z,6.50
2018-01-23T03:34:40.081Z,6.50
2018-01-23T03:37:07.605Z,6.40
2018-01-23T03:39:35.077Z,6.40
2018-01-23T03:42:02.486Z,6.40
2018-01-23T03:44:29.998Z,6.40
2018-01-23T03:46:57.486Z,6.40
2018-01-23T03:49:24.889Z,6.40
2018-01-23T03:51:52.302Z,6.40
2018-01-23T03:54:19.703Z,6.40
2018-01-23T03:56:47.131Z,6.50
2018-01-23T03:59:14.544Z,6.40
2018-01-23T04:01:41.967Z,6.40
2018-01-23T04:04:09.377Z,6.40
2018-01-23T04:06:36.800Z,6.50
2018-01-23T04:09:04.210Z,6.50
2018-01-23T04:11:31.825Z,6.50
2018-01-23T04:14:00.025Z,6.50
2018-01-23T04:16:28.200Z,6.50
2018-01-23T04:18:56.373Z,6.40
2018-01-23T04:21:23.809Z,6.50
2018-01-23T04:23:51.252Z,6.40
2018-01-23T04:26:18.737Z,6.40
2018-01-23T04:28:46.194Z,6.40
2018-01-23T04:31:13.759Z,6.40
2018-01-23T04:33:41.166Z,6.40
2018-01-23T04:36:08.580Z,6.40
2018-01-23T04:38:36.056Z,6.40
2018-01-23T04:41:03.517Z,6.50
2018-01-23T04:43:30.940Z,6.50
2018-01-23T04:45:58.359Z,6.50
2018-01-23T04:48:25.769Z,6.50
2018-01-23T04:50:53.207Z,6.50
2018-01-23T04:53:20.625Z,6.50
2018-01-23T04:55:48.149Z,6.50
2018-01-23T04:58:15.564Z,6.50
2018-01-23T05:00:42.976Z,6.50
2018-01-23T05:03:10.387Z,6.50
2018-01-23T05:05:37.793Z,6.50
2018-01-23T05:08:05.983Z,6.50
2018-01-23T05:10:34.147Z,6.50
2018-01-23T05:13:02.313Z,6.50
2018-01-23T05:15:29.766Z,6.50
2018-01-23T05:17:57.153Z,6.50
2018-01-23T05:20:24.664Z,6.50
2018-01-23T05:22:52.077Z,6.50
2018-01-23T05:25:19.496Z,6.50
2018-01-23T05:27:47.666Z,6.50
2018-01-23T05:30:15.877Z,6.50
2018-01-23T05:32:43.298Z,6.50
2018-01-23T05:35:10.709Z,6.50
2018-01-23T05:37:38.189Z,6.50
2018-01-23T05:40:05.625Z,6.50
2018-01-23T05:42:33.833Z,6.50
2018-01-23T05:45:01.253Z,6.50
2018-01-23T05:47:28.718Z,6.50
2018-01-23T05:49:56.172Z,6.60
2018-01-23T05:52:23.566Z,6.60
2018-01-23T05:54:50.978Z,6.60
2018-01-23T05:57:18.455Z,6.60
2018-01-23T05:59:45.869Z,6.60
2018-01-23T06:02:13.265Z,6.60
2018-01-23T06:04:40.681Z,6.60
2018-01-23T06:07:08.180Z,6.60
2018-01-23T06:09:35.681Z,6.60
2018-01-23T06:12:03.102Z,6.60
2018-01-23T06:14:30.517Z,6.60
2018-01-23T06:16:58.104Z,6.60
2018-01-23T06:19:26.264Z,6.70
2018-01-23T06:21:54.473Z,6.70
2018-01-23T06:24:22.649Z,6.70
2018-01-23T06:26:50.068Z,6.70
2018-01-23T06:29:17.525Z,6.70
2018-01-23T06:31:44.936Z,6.70
2018-01-23T06:34:13.119Z,6.70
2018-01-23T06:36:41.293Z,6.80
2018-01-23T06:39:09.484Z,6.70
2018-01-23T06:41:37.676Z,6.70
2018-01-23T06:44:05.849Z,6.80
2018-01-23T06:46:33.270Z,6.80
2018-01-23T06:49:00.691Z,6.80
2018-01-23T06:51:28.122Z,6.80
2018-01-23T06:53:55.577Z,6.80
2018-01-23T06:56:22.989Z,6.80
2018-01-23T06:58:50.423Z,6.80
2018-01-23T07:01:17.851Z,6.80
2018-01-23T07:03:46.039Z,6.80
2018-01-23T07:06:13.526Z,6.80
2018-01-23T07:08:41.693Z,6.80
2018-01-23T07:11:09.865Z,6.90
2018-01-23T07:13:38.052Z,6.90
2018-01-23T07:16:06.235Z,6.90
2018-01-23T07:18:34.454Z,6.90
2018-01-23T07:21:01.866Z,6.90
2018-01-23T07:23:29.313Z,6.90
2018-01-23T07:25:56.748Z,6.90
2018-01-23T07:28:24.206Z,6.90
2018-01-23T07:30:52.418Z,6.90
2018-01-23T07:33:19.906Z,6.90
2018-01-23T07:35:47.305Z,6.90
2018-01-23T07:38:14.717Z,6.90
2018-01-23T07:40:42.143Z,6.90
2018-01-23T07:43:09.577Z,7.00
2018-01-23T07:45:37.029Z,7.00
2018-01-23T07:48:04.511Z,7.00
2018-01-23T07:50:32.342Z,7.00
2018-01-23T07:52:59.739Z,7.00
2018-01-23T07:55:27.193Z,7.00
2018-01-23T07:57:54.601Z,7.00
2018-01-23T08:00:22.045Z,7.10
2018-01-23T08:02:49.469Z,7.10
2018-01-23T08:05:16.944Z,7.10
2018-01-23T08:07:44.317Z,7.10
2018-01-23T08:10:12.520Z,7.10
2018-01-23T08:12:39.999Z,7.10
2018-01-23T08:15:08.157Z,7.10
2018-01-23T08:17:36.352Z,7.10
2018-01-23T08:20:04.529Z,7.10
2018-01-23T08:22:32.742Z,7.10
2018-01-23T08:25:00.917Z,7.20
2018-01-23T08:27:28.410Z,7.20
2018-01-23T08:29:55.840Z,7.20
2018-01-23T08:32:24.072Z,7.20
2018-01-23T08:34:51.809Z,7.20
2018-01-23T08:37:19.977Z,7.20
2018-01-23T08:39:47.404Z,7.20
2018-01-23T08:42:14.820Z,7.30
2018-01-23T08:44:42.994Z,7.30
2018-01-23T08:47:10.413Z,7.30
2018-01-23T08:49:37.845Z,7.30
2018-01-23T08:52:06.045Z,7.30
2018-01-23T08:54:33.530Z,7.30
2018-01-23T08:57:00.965Z,7.40
2018-01-23T08:59:29.194Z,7.40
2018-01-23T09:01:56.645Z,7.40
2018-01-23T09:04:24.129Z,7.40
2018-01-23T09:06:51.609Z,7.50
2018-01-23T09:09:19.067Z,7.50
2018-01-23T09:11:46.482Z,7.50
2018-01-23T09:14:13.901Z,7.50
2018-01-23T09:16:41.358Z,7.50
2018-01-23T09:19:08.775Z,7.50
2018-01-23T09:21:36.197Z,7.50
2018-01-23T09:24:03.613Z,7.50
2018-01-23T09:26:31.032Z,7.50
2018-01-23T09:28:58.464Z,7.50
2018-01-23T09:31:25.977Z,7.60
2018-01-23T09:33:53.433Z,7.60
2018-01-23T09:36:20.849Z,7.60
2018-01-23T09:38:48.268Z,7.60
2018-01-23T09:41:15.772Z,7.60
2018-01-23T09:43:43.181Z,7.60
2018-01-23T09:46:11.382Z,7.70
2018-01-23T09:48:39.709Z,7.70
2018-01-23T09:51:07.169Z,7.70
2018-01-23T09:53:34.592Z,7.80
2018-01-23T09:56:02.825Z,7.80
2018-01-23T09:58:30.249Z,7.80
2018-01-23T10:00:58.461Z,8.00
2018-01-23T10:03:25.879Z,8.00
2018-01-23T10:05:53.305Z,8.10
2018-01-23T10:08:20.745Z,8.20
2018-01-23T10:10:48.941Z,8.20
2018-01-23T10:13:16.421Z,8.20
2018-01-23T10:15:43.832Z,8.30
2018-01-23T10:18:11.237Z,8.40
2018-01-23T10:20:39.433Z,8.50
2018-01-23T10:23:07.609Z,8.50
2018-01-23T10:25:36.094Z,8.50
2018-01-23T10:28:03.503Z,8.50
2018-01-23T10:30:30.930Z,8.50
2018-01-23T10:32:59.150Z,8.50
2018-01-23T10:35:27.303Z,8.60
2018-01-23T10:37:55.482Z,8.70
2018-01-23T10:40:23.670Z,8.70
2018-01-23T10:42:51.853Z,8.50
2018-01-23T10:45:20.056Z,8.50
2018-01-23T10:47:47.550Z,8.50
2018-01-23T10:50:15.717Z,8.60
2018-01-23T10:52:43.133Z,8.60
2018-01-23T10:55:10.574Z,8.70
2018-01-23T10:57:37.994Z,8.60
2018-01-23T11:00:05.423Z,8.60
2018-01-23T11:02:32.867Z,8.60
2018-01-23T11:05:00.349Z,8.60
2018-01-23T11:07:27.765Z,8.60
2018-01-23T11:09:55.177Z,8.60
2018-01-23T11:12:22.593Z,8.70
2018-01-23T11:14:50.022Z,8.80
2018-01-23T11:17:17.457Z,8.70
2018-01-23T11:19:45.629Z,8.80
2018-01-23T11:22:13.854Z,8.80
2018-01-23T11:24:41.273Z,8.80
2018-01-23T11:27:08.687Z,8.70
2018-01-23T11:29:36.175Z,8.70
2018-01-23T11:32:03.633Z,8.70
2018-01-23T11:34:31.868Z,8.70
2018-01-23T11:36:59.259Z,8.70
2018-01-23T11:39:27.432Z,8.70
2018-01-23T11:41:54.934Z,8.70
2018-01-23T11:44:22.515Z,8.70
2018-01-23T11:46:50.693Z,8.70
2018-01-23T11:49:18.113Z,8.70
2018-01-23T11:51:45.636Z,8.80
2018-01-23T11:54:13.025Z,8.90
2018-01-23T11:56:40.454Z,9.00
2018-01-23T11:59:07.901Z,9.10
2018-01-23T12:01:35.331Z,9.00
2018-01-23T12:04:03.081Z,9.10
2018-01-23T12:06:31.248Z,9.30
2018-01-23T12:08:58.777Z,9.30
2018-01-23T12:11:26.169Z,9.40
2018-01-23T12:13:54.393Z,9.40
2018-01-23T12:16:21.814Z,9.40
2018-01-23T12:18:49.284Z,9.90
2018-01-23T12:21:16.800Z,10.30
2018-01-23T12:23:44.981Z,10.00
2018-01-23T12:26:12.416Z,10.00
2018-01-23T12:28:39.841Z,9.90
2018-01-23T12:31:07.319Z,10.00
2018-01-23T12:33:34.758Z,9.90
2018-01-23T12:36:02.237Z,9.70
2018-01-23T12:38:29.800Z,9.50
2018-01-23T12:40:57.965Z,9.40
2018-01-23T12:43:26.172Z,9.40
2018-01-23T12:45:53.647Z,9.40
2018-01-23T12:48:21.115Z,9.30
2018-01-23T12:50:49.311Z,9.00
2018-01-23T12:53:16.714Z,9.00
2018-01-23T12:55:44.129Z,9.10
2018-01-23T12:58:11.549Z,9.00
2018-01-23T13:00:39.077Z,9.00
2018-01-23T13:03:06.464Z,9.00
2018-01-23T13:05:33.869Z,9.00
2018-01-23T13:08:02.198Z,9.10
2018-01-23T13:10:30.341Z,9.20
2018-01-23T13:12:58.544Z,9.20
2018-01-23T13:15:26.725Z,9.20
2018-01-23T13:17:54.128Z,9.20
2018-01-23T13:20:21.549Z,9.30
2018-01-23T13:22:49.721Z,9.20
2018-01-23T13:25:18.651Z,9.20
2018-01-23T13:27:46.870Z,9.20
2018-01-23T13:30:14.326Z,9.10
2018-01-23T13:32:41.761Z,9.10
2018-01-23T13:35:09.953Z,8.90
2018-01-23T13:37:38.153Z,9.00
2018-01-23T13:40:05.573Z,9.00
2018-01-23T13:42:33.002Z,9.00
2018-01-23T13:45:00.477Z,9.10
2018-01-23T13:47:27.876Z,9.10
2018-01-23T13:49:55.291Z,9.00
2018-01-23T13:52:23.486Z,8.90
2018-01-23T13:54:50.927Z,8.90
2018-01-23T13:57:19.153Z,8.80
2018-01-23T13:59:47.309Z,8.80
2018-01-23T14:02:15.542Z,8.90
2018-01-23T14:04:42.987Z,8.80
2018-01-23T14:07:10.406Z,8.80
2018-01-23T14:09:37.821Z,8.80
2018-01-23T14:12:05.251Z,8.80
2018-01-23T14:14:32.669Z,8.80
2018-01-23T14:17:00.150Z,8.80
2018-01-23T14:19:27.585Z,8.80
2018-01-23T14:21:55.016Z,8.70
2018-01-23T14:24:22.418Z,8.70
2018-01-23T14:26:50.593Z,8.70
2018-01-23T14:29:18.807Z,8.70
2018-01-23T14:31:46.232Z,8.70
2018-01-23T14:34:13.651Z,8.60
2018-01-23T14:36:41.073Z,8.60
2018-01-23T14:39:10.005Z,8.60
2018-01-23T14:41:37.438Z,8.60
2018-01-23T14:44:05.062Z,8.60
2018-01-23T14:46:33.209Z,8.50
2018-01-23T14:49:01.389Z,8.50
2018-01-23T14:51:28.901Z,8.50
2018-01-23T14:53:56.325Z,8.50
2018-01-23T14:56:23.852Z,8.50
2018-01-23T14:58:51.259Z,8.50
2018-01-23T15:01:18.660Z,8.40
2018-01-23T15:03:46.138Z,8.40
2018-01-23T15:06:13.603Z,8.40
2018-01-23T15:08:41.813Z,8.40
2018-01-23T15:11:09.237Z,8.40
2018-01-23T15:13:37.457Z,8.40
2018-01-23T15:16:04.920Z,8.40
2018-01-23T15:18:33.093Z,8.40
2018-01-23T15:21:01.330Z,8.40
2018-01-23T15:23:28.741Z,8.30
2018-01-23T15:25:56.921Z,8.30
2018-01-23T15:28:24.421Z,8.30
2018-01-23T15:30:52.577Z,8.30
2018-01-23T15:33:20.757Z,8.30
2018-01-23T15:35:48.951Z,8.30
2018-01-23T15:38:16.366Z,8.30
2018-01-23T15:40:43.781Z,8.30
2018-01-23T15:43:11.997Z,8.20
2018-01-23T15:45:39.406Z,8.20
2018-01-23T15:48:06.843Z,8.20
2018-01-23T15:50:34.301Z,8.20
2018-01-23T15:53:01.721Z,8.10
2018-01-23T15:55:29.139Z,8.10
2018-01-23T15:57:56.557Z,8.10
2018-01-23T16:00:23.989Z,8.00
2018-01-23T16:02:51.445Z,8.00
2018-01-23T16:05:18.881Z,8.00
2018-01-23T16:07:46.312Z,8.00
2018-01-23T16:10:13.736Z,7.90
2018-01-23T16:12:41.222Z,7.90
2018-01-23T16:15:08.653Z,7.90
2018-01-23T16:17:36.857Z,7.90
2018-01-23T16:20:04.443Z,7.90
2018-01-23T16:22:31.821Z,7.90
2018-01-23T16:24:59.233Z,7.90
2018-01-23T16:27:26.653Z,7.90
2018-01-23T16:29:54.117Z,7.90
2018-01-23T16:32:21.549Z,7.90
2018-01-23T16:34:48.984Z,7.90
2018-01-23T16:37:16.428Z,7.90
2018-01-23T16:39:43.846Z,7.90
2018-01-23T16:42:11.246Z,7.90
2018-01-23T16:44:38.725Z,7.90
2018-01-23T16:47:06.130Z,7.90
2018-01-23T16:49:33.558Z,7.90
2018-01-23T16:52:01.022Z,7.90
2018-01-23T16:54:28.454Z,7.90
2018-01-23T16:56:55.860Z,7.90
2018-01-23T16:59:23.314Z,7.90
2018-01-23T17:01:50.697Z,7.90
2018-01-23T17:04:18.132Z,7.90
2018-01-23T17:06:46.346Z,7.90
2018-01-23T17:09:13.758Z,7.80
2018-01-23T17:11:41.241Z,7.80
2018-01-23T17:14:08.655Z,7.80
2018-01-23T17:16:36.053Z,7.80
2018-01-23T17:19:03.809Z,7.80
2018-01-23T17:21:31.263Z,7.80
2018-01-23T17:23:58.724Z,7.80
2018-01-23T17:26:26.137Z,7.90
2018-01-23T17:28:53.546Z,7.90
2018-01-23T17:31:21.719Z,7.90
2018-01-23T17:33:49.231Z,7.80
2018-01-23T17:36:16.634Z,7.90
2018-01-23T17:38:44.060Z,7.80
2018-01-23T17:41:11.457Z,7.80
2018-01-23T17:43:38.885Z,7.90
2018-01-23T17:46:06.293Z,7.90
2018-01-23T17:48:33.733Z,7.90
2018-01-23T17:51:01.877Z,7.90
2018-01-23T17:53:29.393Z,7.80
2018-01-23T17:55:56.814Z,7.90
2018-01-23T17:58:24.241Z,7.90
2018-01-23T18:00:51.668Z,7.90
2018-01-23T18:03:19.882Z,7.90
2018-01-23T18:05:47.343Z,7.90
2018-01-23T18:08:14.742Z,7.90
2018-01-23T18:10:42.178Z,7.80
2018-01-23T18:13:09.588Z,7.80
2018-01-23T18:15:37.018Z,7.70
2018-01-23T18:18:04.425Z,7.70
2018-01-23T18:20:31.959Z,7.60
2018-01-23T18:23:00.143Z,7.50
2018-01-23T18:25:27.605Z,7.50
2018-01-23T18:27:55.073Z,7.50
2018-01-23T18:30:22.545Z,7.50
2018-01-23T18:32:50.035Z,7.50
2018-01-23T18:35:17.455Z,7.50
2018-01-23T18:37:44.868Z,7.50
2018-01-23T18:40:12.280Z,7.50
2018-01-23T18:42:39.688Z,7.40
2018-01-23T18:45:07.854Z,7.30
2018-01-23T18:47:35.257Z,7.30
2018-01-23T18:50:02.666Z,7.30
2018-01-23T18:52:30.173Z,7.30
2018-01-23T18:54:57.589Z,7.30
2018-01-23T18:57:25.008Z,7.30
2018-01-23T18:59:52.431Z,7.30
2018-01-23T19:02:19.826Z,7.30
2018-01-23T19:04:48.003Z,7.20
2018-01-23T19:07:16.195Z,7.20
2018-01-23T19:09:44.368Z,7.20
2018-01-23T19:12:11.879Z,7.20
2018-01-23T19:14:39.286Z,7.20
2018-01-23T19:17:06.704Z,7.20
2018-01-23T19:19:34.118Z,7.20
2018-01-23T19:22:01.530Z,7.20
2018-01-23T19:24:29.728Z,7.20
2018-01-23T19:26:57.153Z,7.20
2018-01-23T19:29:24.558Z,7.20
2018-01-23T19:31:52.041Z,7.30
2018-01-23T19:34:19.491Z,7.30
2018-01-23T19:36:47.690Z,7.30
2018-01-23T19:39:15.113Z,7.30
2018-01-23T19:41:42.517Z,7.30
2018-01-23T19:44:09.937Z,7.30
2018-01-23T19:46:37.353Z,7.30
2018-01-23T19:49:04.777Z,7.30
2018-01-23T19:51:32.200Z,7.30
2018-01-23T19:53:59.729Z,7.40
2018-01-23T19:56:27.245Z,7.40
2018-01-23T19:58:54.649Z,7.40
2018-01-23T20:01:22.057Z,7.40
2018-01-23T20:03:50.274Z,7.50
2018-01-23T20:06:17.729Z,7.50
2018-01-23T20:08:45.205Z,7.50
2018-01-23T20:11:12.631Z,7.50
2018-01-23T20:13:40.132Z,7.50
2018-01-23T20:16:07.609Z,7.60
2018-01-23T20:18:35.033Z,7.60
2018-01-23T20:21:02.454Z,7.70
2018-01-23T20:23:29.870Z,7.60
2018-01-23T20:25:57.289Z,7.70
2018-01-23T20:28:24.773Z,7.70
2018-01-23T20:30:52.202Z,7.60
2018-01-23T20:33:19.691Z,7.70
2018-01-23T20:35:47.129Z,7.70
2018-01-23T20:38:15.345Z,7.70
2018-01-23T20:40:42.810Z,7.70
2018-01-23T20:43:10.285Z,7.70
2018-01-23T20:45:37.745Z,7.70
2018-01-23T20:48:05.145Z,7.80
2018-01-23T20:50:32.557Z,7.80
2018-01-23T20:53:00.745Z,7.80
2018-01-23T20:55:28.950Z,7.80
2018-01-23T20:57:56.378Z,7.80
2018-01-23T21:00:23.787Z,7.80
2018-01-23T21:02:51.254Z,7.80
2018-01-23T21:05:18.734Z,7.80
2018-01-23T21:07:46.155Z,7.80
2018-01-23T21:10:13.661Z,7.80
2018-01-23T21:12:41.145Z,7.80
2018-01-23T21:15:08.545Z,7.80
2018-01-23T21:17:35.958Z,7.80
2018-01-23T21:20:03.389Z,7.80
2018-01-23T21:22:30.773Z,7.80
2018-01-23T21:24:58.177Z,7.80
2018-01-23T21:27:25.769Z,7.80
2018-01-23T21:29:53.213Z,7.80
2018-01-23T21:32:20.649Z,7.80
2018-01-23T21:34:48.057Z,7.80
2018-01-23T21:37:15.537Z,7.80
2018-01-23T21:39:43.021Z,7.80
2018-01-23T21:42:10.450Z,7.80
2018-01-23T21:44:37.905Z,7.90
2018-01-23T21:47:06.115Z,7.90
2018-01-23T21:49:33.529Z,7.90
2018-01-23T21:52:01.049Z,7.80
2018-01-23T21:54:28.478Z,7.80
2018-01-23T21:56:55.886Z,7.90
2018-01-23T21:59:23.303Z,7.90
2018-01-23T22:01:51.557Z,7.90
2018-01-23T22:04:18.969Z,7.90
2018-01-23T22:06:46.381Z,7.90
2018-01-23T22:09:13.781Z,7.90
2018-01-23T22:11:41.213Z,7.90
2018-01-23T22:14:08.625Z,8.00
2018-01-23T22:16:36.049Z,8.00
2018-01-23T22:19:03.550Z,8.00
2018-01-23T22:21:30.921Z,8.00
2018-01-23T22:23:58.325Z,8.00
2018-01-23T22:26:26.525Z,8.00
2018-01-23T22:28:54.693Z,8.00
2018-01-23T22:31:22.872Z,8.00
2018-01-23T22:33:51.066Z,8.10
2018-01-23T22:36:19.243Z,8.10
2018-01-23T22:38:46.654Z,8.00
2018-01-23T22:41:14.133Z,8.10
2018-01-23T22:43:41.513Z,8.10
2018-01-23T22:46:08.941Z,8.10
2018-01-23T22:48:36.443Z,8.10
2018-01-23T22:51:03.882Z,8.10
2018-01-23T22:53:31.285Z,8.20
2018-01-23T22:55:58.693Z,8.10
2018-01-23T22:58:26.870Z,8.20
2018-01-23T23:00:54.279Z,8.20
2018-01-23T23:03:21.707Z,8.20
2018-01-23T23:05:49.130Z,8.30
2018-01-23T23:08:16.545Z,8.30
2018-01-23T23:10:44.713Z,8.30
2018-01-23T23:13:12.253Z,8.30
2018-01-23T23:15:39.649Z,8.30
2018-01-23T23:18:07.065Z,8.30
2018-01-23T23:20:34.542Z,8.30
2018-01-23T23:23:01.961Z,8.30
2018-01-23T23:25:29.373Z,8.20
2018-01-23T23:27:56.805Z,8.30
2018-01-23T23:30:24.217Z,8.30
2018-01-23T23:32:51.708Z,8.30
2018-01-23T23:35:19.130Z,8.30
2018-01-23T23:37:47.350Z,8.40
2018-01-23T23:40:14.797Z,8.40
2018-01-23T23:42:42.269Z,8.40
2018-01-23T23:45:09.673Z,8.40
2018-01-23T23:47:37.117Z,8.40
2018-01-23T23:50:04.583Z,8.50
2018-01-23T23:52:32.044Z,8.60
2018-01-23T23:54:59.449Z,8.60
2018-01-23T23:57:26.874Z,8.60
2018-01-23T23:59:55.030Z,8.60
